EDDH/HAM METAR and TAF weather

Enter ICAO airport designator
Station Type Date Time Source
EDDH METAR 2018/06/25 17:20 UTC NOAA

EDDH 251720Z 29009KT 9999 -DZRA BKN008 BKN013 14/13 Q1022 TEMPO BKN012


Station Type Date Time Source
EDDH Decoded METAR 2018/06/25 17:20 UTC NOAA

Hamburg-Fuhlsbuettel, Germany (EDDH) 53-38N 010-00E 15M
Jun 25, 2018 - 01:20 PM EDT / 2018.06.25 1720 UTC
Wind: from the WNW (290 degrees) at 10 MPH (9 KT):0
Visibility: greater than 7 mile(s):0
Sky conditions: mostly cloudy
Weather: light drizzle, rain
Temperature: 57 F (14 C)
Dew Point: 55 F (13 C)
Relative Humidity: 93%
Pressure (altimeter): 30.18 in. Hg (1022 hPa)
ob: EDDH 251720Z 29009KT 9999 -DZRA BKN008 BKN013 14/13 Q1022 TEMPO BKN012
cycle: 17

Station Type Date Time Source
EDDH TAF 2018/06/25 14:56 UTC NOAA

TAF
AMD EDDH 251445Z 2514/2618 29012KT 9999 BKN020
BECMG 2514/2516 BKN013 PROB30
TEMPO 2516/2520 BKN009
BECMG 2519/2521 28005KT
TEMPO 2519/2601 SCT012 BKN020
TEMPO 2601/2607 BKN008
BECMG 2605/2608 SCT030


Example: see airport list